Time;durP1;ratioP1;P1;durP2;ratioP2;P2;SDS_P1;SDS_P2;PMS_P1;PMS_P2;Temp;Humidity;BMP_temperature;BMP_pressure;BME280_temperature;BME280_humidity;BME280_pressure;Samples;Min_cycle;Max_cycle;Signal;HPM_P1;HPM_P2
2021/05/01 00:01:25;;;;;;;2.75;1.70;;;20.70;47.70;;;;;;5035318;28;20037;-49
2021/05/01 00:03:50;;;;;;;2.40;1.63;;;20.70;47.70;;;;;;5034840;28;20322;-45
2021/05/01 00:06:16;;;;;;;4.25;1.92;;;20.70;47.70;;;;;;5035279;28;20088;-44
2021/05/01 00:08:41;;;;;;;2.28;1.55;;;20.70;47.70;;;;;;5034893;28;20045;-45
2021/05/01 00:11:07;;;;;;;3.55;1.65;;;20.70;47.70;;;;;;5034969;28;20400;-46
2021/05/01 00:13:34;;;;;;;5.30;2.03;;;20.70;47.70;;;;;;5034826;28;20079;-47
2021/05/01 00:16:01;;;;;;;3.42;1.60;;;20.70;48.40;;;;;;5035062;28;20037;-44
2021/05/01 00:18:26;;;;;;;4.82;1.92;;;20.70;47.60;;;;;;5034947;28;20052;-46
2021/05/01 00:20:52;;;;;;;1.52;1.33;;;20.70;47.60;;;;;;5034984;28;20444;-44
2021/05/01 00:23:18;;;;;;;2.40;2.00;;;20.70;48.30;;;;;;5034932;28;20029;-47
2021/05/01 00:25:44;;;;;;;4.97;1.83;;;20.70;47.60;;;;;;5035277;28;20032;-45
2021/05/01 00:28:11;;;;;;;3.10;1.73;;;20.70;47.60;;;;;;5035161;28;20432;-45
2021/05/01 00:30:37;;;;;;;2.72;1.88;;;20.70;47.60;;;;;;5034425;28;20439;-44
2021/05/01 00:33:03;;;;;;;2.80;1.58;;;20.70;47.60;;;;;;5034896;28;20041;-45
2021/05/01 00:35:28;;;;;;;3.42;2.00;;;20.60;47.50;;;;;;5017570;28;20029;-44
2021/05/01 00:37:54;;;;;;;3.63;2.10;;;20.60;47.40;;;;;;5034701;28;20028;-45
2021/05/01 00:40:20;;;;;;;3.42;2.00;;;20.60;47.40;;;;;;5034581;28;20099;-45
2021/05/01 00:42:46;;;;;;;2.25;1.67;;;20.60;47.40;;;;;;5035630;28;20026;-46
2021/05/01 00:45:12;;;;;;;3.30;1.98;;;20.60;47.40;;;;;;5023607;28;20506;-45
2021/05/01 00:47:38;;;;;;;4.03;2.05;;;20.70;47.40;;;;;;5041046;28;20428;-45
2021/05/01 00:50:04;;;;;;;3.25;1.80;;;20.60;47.30;;;;;;5041153;28;20031;-46
2021/05/01 00:52:31;;;;;;;2.40;1.50;;;20.60;47.30;;;;;;5041197;28;20105;-44
2021/05/01 00:54:57;;;;;;;3.88;2.15;;;20.60;47.20;;;;;;5040966;28;20029;-44
2021/05/01 00:57:22;;;;;;;2.80;1.98;;;20.60;47.20;;;;;;5041176;28;20026;-46
2021/05/01 00:59:49;;;;;;;1.90;1.70;;;20.60;47.20;;;;;;5040891;28;20056;-44
2021/05/01 01:02:17;;;;;;;4.03;1.90;;;20.60;47.20;;;;;;5041312;28;20440;-46
2021/05/01 01:04:42;;;;;;;2.28;1.90;;;20.60;47.20;;;;;;5040833;28;20021;-44
2021/05/01 01:07:08;;;;;;;4.68;1.77;;;20.60;47.20;;;;;;5041374;28;20041;-46
2021/05/01 01:09:34;;;;;;;3.67;1.90;;;20.60;47.10;;;;;;5041413;28;20470;-46
2021/05/01 01:11:59;;;;;;;4.50;2.08;;;20.60;47.10;;;;;;5041331;28;20022;-47
2021/05/01 01:14:25;;;;;;;2.22;1.80;;;20.60;47.10;;;;;;5041059;28;20021;-44
2021/05/01 01:16:50;;;;;;;2.22;1.80;;;20.60;47.10;;;;;;5041075;28;20445;-46
2021/05/01 01:19:16;;;;;;;5.25;1.75;;;20.60;47.00;;;;;;5040974;28;20041;-49
2021/05/01 01:21:42;;;;;;;2.45;1.65;;;20.50;47.00;;;;;;5040966;28;20120;-47
2021/05/01 01:24:09;;;;;;;2.67;1.90;;;20.50;47.00;;;;;;5041155;28;20091;-48
2021/05/01 01:26:36;;;;;;;2.58;1.92;;;20.50;47.60;;;;;;5041208;28;20055;-45
2021/05/01 01:29:02;;;;;;;2.20;1.77;;;20.50;46.90;;;;;;5040423;28;20040;-45
2021/05/01 01:31:28;;;;;;;3.53;1.88;;;20.50;46.90;;;;;;5040659;28;20029;-49
2021/05/01 01:33:54;;;;;;;2.55;2.00;;;20.50;46.80;;;;;;5040856;28;20021;-46
2021/05/01 01:36:19;;;;;;;2.42;1.70;;;20.50;46.80;;;;;;5041059;28;20036;-44
2021/05/01 01:38:45;;;;;;;3.28;2.05;;;20.50;46.80;;;;;;5040394;28;20025;-45
2021/05/01 01:41:10;;;;;;;4.07;2.10;;;20.50;46.80;;;;;;5040823;28;20352;-47
2021/05/01 01:43:37;;;;;;;4.03;2.08;;;20.50;46.80;;;;;;5040868;28;20040;-44
2021/05/01 01:46:03;;;;;;;3.58;1.92;;;20.50;46.80;;;;;;5040940;28;20022;-44
2021/05/01 01:48:28;;;;;;;2.35;1.60;;;20.50;46.80;;;;;;5040753;28;20033;-47
2021/05/01 01:50:54;;;;;;;4.15;2.33;;;20.40;46.70;;;;;;5040655;28;20064;-45
2021/05/01 01:53:22;;;;;;;3.38;2.03;;;20.40;46.70;;;;;;5040902;28;20356;-47
2021/05/01 01:55:48;;;;;;;2.75;1.80;;;20.50;46.70;;;;;;5037589;28;20030;-45
2021/05/01 01:58:13;;;;;;;2.20;1.88;;;20.40;46.70;;;;;;5037100;28;20033;-46
2021/05/01 02:00:39;;;;;;;2.60;1.98;;;20.50;46.70;;;;;;5037808;28;20130;-44
2021/05/01 02:03:05;;;;;;;5.68;2.08;;;20.40;46.60;;;;;;5037667;28;20034;-46
2021/05/01 02:05:30;;;;;;;2.38;1.90;;;20.50;46.70;;;;;;5037542;28;20356;-50
2021/05/01 02:07:57;;;;;;;1.92;1.70;;;20.40;46.60;;;;;;5037475;28;20344;-44
2021/05/01 02:10:22;;;;;;;2.00;1.75;;;20.40;46.60;;;;;;5037547;28;20060;-46
2021/05/01 02:12:48;;;;;;;6.78;2.83;;;20.40;46.60;;;;;;5037297;28;20053;-48
2021/05/01 02:15:21;;;;;;;1.67;1.58;;;20.40;46.60;;;;;;5037293;28;20356;-44
2021/05/01 02:17:48;;;;;;;;;;;20.40;46.60;;;;;;5037451;28;20038;-45
2021/05/01 02:20:36;;;;;;;2.45;2.03;;;20.40;46.70;;;;;;5037122;28;19913;-44
2021/05/01 02:23:04;;;;;;;2.83;1.67;;;20.40;46.70;;;;;;5019359;28;20330;-47
2021/05/01 02:25:30;;;;;;;2.53;1.67;;;20.30;46.70;;;;;;5036967;28;20044;-45
2021/05/01 02:27:56;;;;;;;2.85;1.83;;;20.40;46.60;;;;;;5036960;28;20061;-44
2021/05/01 02:30:26;;;;;;;2.67;2.00;;;20.30;46.50;;;;;;5037460;28;20483;-46
2021/05/01 02:32:52;;;;;;;2.60;2.10;;;20.30;46.50;;;;;;5037078;28;20053;-48
2021/05/01 02:35:21;;;;;;;2.40;2.00;;;20.30;46.50;;;;;;5036864;28;20068;-46
2021/05/01 02:37:47;;;;;;;3.42;1.90;;;20.30;46.50;;;;;;5036935;28;20023;-46
2021/05/01 02:40:15;;;;;;;2.47;1.80;;;20.30;46.50;;;;;;5036591;28;20125;-45
2021/05/01 02:42:42;;;;;;;3.95;2.13;;;20.30;46.50;;;;;;5036904;28;20108;-47
2021/05/01 02:45:10;;;;;;;2.33;2.03;;;20.30;46.40;;;;;;5036742;28;20026;-44
2021/05/01 02:47:37;;;;;;;3.55;2.08;;;20.30;46.40;;;;;;5037049;28;20033;-44
2021/05/01 02:50:05;;;;;;;2.78;1.98;;;20.30;46.40;;;;;;5036692;28;20040;-47
2021/05/01 02:52:30;;;;;;;3.47;2.08;;;20.30;46.40;;;;;;5036350;28;20030;-44
2021/05/01 02:54:57;;;;;;;2.95;1.85;;;20.20;46.30;;;;;;5036941;28;20451;-44
2021/05/01 02:57:22;;;;;;;2.45;1.80;;;20.20;46.30;;;;;;5036138;28;20509;-47
2021/05/01 02:59:48;;;;;;;2.78;1.73;;;20.30;46.30;;;;;;5036730;28;20045;-45
2021/05/01 03:02:13;;;;;;;2.65;1.85;;;20.30;46.30;;;;;;5036214;28;20021;-44
2021/05/01 03:04:39;;;;;;;2.03;1.58;;;20.30;46.30;;;;;;5036671;28;20104;-47
2021/05/01 03:07:04;;;;;;;1.95;1.75;;;20.30;46.30;;;;;;5036246;28;20352;-46
2021/05/01 03:09:30;;;;;;;2.13;1.73;;;20.30;46.30;;;;;;5036255;28;20026;-44
2021/05/01 03:11:56;;;;;;;2.38;1.80;;;20.20;46.30;;;;;;5036549;28;20025;-45
2021/05/01 03:14:25;;;;;;;1.92;1.73;;;20.20;46.20;;;;;;5036132;28;20021;-46
2021/05/01 03:16:51;;;;;;;2.72;1.80;;;20.20;46.20;;;;;;5036415;28;20026;-49
2021/05/01 03:19:16;;;;;;;2.10;1.75;;;20.20;46.20;;;;;;5036145;28;20040;-45
2021/05/01 03:21:41;;;;;;;3.13;1.83;;;20.20;46.20;;;;;;5035835;28;20025;-46
2021/05/01 03:24:08;;;;;;;3.42;1.75;;;20.20;46.10;;;;;;5036251;28;20037;-44
2021/05/01 03:26:33;;;;;;;2.80;1.52;;;20.20;46.10;;;;;;5035895;28;20104;-48
2021/05/01 03:28:59;;;;;;;3.08;1.70;;;20.20;46.10;;;;;;5035993;28;20407;-47
2021/05/01 03:31:24;;;;;;;2.90;1.80;;;20.20;46.10;;;;;;5035701;28;20470;-45
2021/05/01 03:33:50;;;;;;;3.95;1.90;;;20.20;46.10;;;;;;5035606;28;20056;-46
2021/05/01 03:36:15;;;;;;;3.13;1.50;;;20.20;46.10;;;;;;5035284;28;20029;-46
2021/05/01 03:38:41;;;;;;;2.80;1.88;;;20.20;46.10;;;;;;5035566;28;20026;-48
2021/05/01 03:41:06;;;;;;;5.82;1.75;;;20.20;46.10;;;;;;5035618;28;20057;-45
2021/05/01 03:43:32;;;;;;;2.05;1.38;;;20.10;46.00;;;;;;5035438;28;20028;-45
2021/05/01 03:45:58;;;;;;;2.65;1.55;;;20.10;45.90;;;;;;5035288;28;20033;-45
2021/05/01 03:48:24;;;;;;;3.42;1.58;;;20.10;45.90;;;;;;5035787;28;20451;-47
2021/05/01 03:50:49;;;;;;;1.45;1.35;;;20.10;45.90;;;;;;5035217;28;20028;-45
2021/05/01 03:53:15;;;;;;;2.08;1.60;;;20.10;45.90;;;;;;5035360;28;20018;-45
2021/05/01 03:55:41;;;;;;;2.05;1.65;;;20.10;45.90;;;;;;5035718;28;20030;-47
2021/05/01 03:58:06;;;;;;;2.85;1.83;;;20.10;45.90;;;;;;5035620;28;20482;-45
2021/05/01 04:00:32;;;;;;;3.75;1.60;;;20.10;45.80;;;;;;5035382;28;20120;-49
2021/05/01 04:02:57;;;;;;;2.15;1.73;;;20.10;45.80;;;;;;5035215;28;20033;-44
2021/05/01 04:05:23;;;;;;;2.47;1.70;;;20.10;45.80;;;;;;5035206;28;20105;-46
2021/05/01 04:07:50;;;;;;;2.33;1.65;;;20.10;45.80;;;;;;5034823;28;20067;-45
2021/05/01 04:10:16;;;;;;;1.38;1.27;;;20.10;45.80;;;;;;5034882;28;20415;-45
2021/05/01 04:12:41;;;;;;;2.42;1.42;;;20.10;45.80;;;;;;5035287;28;20143;-47
2021/05/01 04:15:08;;;;;;;2.10;1.50;;;20.00;45.80;;;;;;5034794;28;20104;-43
2021/05/01 04:17:34;;;;;;;1.95;1.50;;;20.00;45.70;;;;;;5035053;28;20025;-45
2021/05/01 04:19:59;;;;;;;3.28;1.55;;;20.00;45.70;;;;;;5034272;28;20052;-47
2021/05/01 04:22:25;;;;;;;2.97;1.65;;;20.00;45.70;;;;;;5034686;28;20107;-47
2021/05/01 04:24:51;;;;;;;2.47;1.77;;;20.00;45.60;;;;;;5035374;28;20088;-43
2021/05/01 04:27:17;;;;;;;2.50;1.77;;;20.00;45.60;;;;;;5034913;28;20033;-43
2021/05/01 04:29:42;;;;;;;2.45;1.67;;;20.00;45.50;;;;;;5034918;28;20032;-45
2021/05/01 04:32:08;;;;;;;4.10;1.70;;;20.00;45.50;;;;;;5017371;28;20050;-46
2021/05/01 04:34:34;;;;;;;3.35;1.80;;;20.00;45.50;;;;;;5034728;28;20029;-49
2021/05/01 04:37:00;;;;;;;7.53;2.22;;;20.00;45.60;;;;;;5034465;28;20022;-47
2021/05/01 04:39:26;;;;;;;3.83;2.17;;;20.00;45.70;;;;;;5034535;28;20103;-48
2021/05/01 04:41:53;;;;;;;4.20;2.20;;;20.00;45.30;;;;;;5034241;28;20029;-45
2021/05/01 04:44:20;;;;;;;4.18;2.05;;;19.90;45.10;;;;;;5033647;28;20040;-47
2021/05/01 04:46:52;;;;;;;6.68;1.60;;;19.90;45.20;;;;;;5034459;28;20463;-46
2021/05/01 04:49:17;;;;;;;4.80;2.20;;;19.90;45.40;;;;;;5034842;28;20087;-45
2021/05/01 04:51:43;;;;;;;8.45;1.73;;;19.90;45.40;;;;;;5034568;28;20029;-46
2021/05/01 04:54:09;;;;;;;4.90;2.03;;;19.90;45.40;;;;;;5035047;28;20029;-44
2021/05/01 04:56:35;;;;;;;3.60;2.08;;;20.00;45.50;;;;;;5033536;28;20041;-44
2021/05/01 04:59:00;;;;;;;5.72;2.33;;;19.90;45.40;;;;;;5034870;28;20037;-47
2021/05/01 05:01:26;;;;;;;8.02;1.90;;;19.90;45.50;;;;;;5034784;28;20025;-45
2021/05/01 05:03:52;;;;;;;3.25;1.60;;;19.90;45.50;;;;;;5034476;28;20036;-47
2021/05/01 05:06:17;;;;;;;4.18;2.30;;;19.90;45.60;;;;;;5034523;28;20039;-46
2021/05/01 05:08:43;;;;;;;2.50;1.52;;;19.90;45.60;;;;;;5034330;28;20053;-46
2021/05/01 05:11:08;;;;;;;2.90;1.88;;;19.90;45.70;;;;;;5033868;28;20025;-46
2021/05/01 05:13:34;;;;;;;3.30;1.98;;;19.90;45.70;;;;;;5034597;28;20499;-48
2021/05/01 05:16:00;;;;;;;3.72;2.10;;;19.90;46.40;;;;;;5034280;28;20049;-44
2021/05/01 05:18:25;;;;;;;3.55;1.80;;;19.90;45.80;;;;;;5034610;28;20054;-44
2021/05/01 05:20:51;;;;;;;3.30;1.38;;;19.90;45.80;;;;;;5033835;28;20463;-47
2021/05/01 05:23:17;;;;;;;10.85;2.00;;;19.90;45.80;;;;;;5034330;28;20034;-45
2021/05/01 05:25:42;;;;;;;4.15;1.80;;;19.90;45.80;;;;;;5034498;28;20028;-45
2021/05/01 05:28:08;;;;;;;7.38;1.83;;;19.90;45.90;;;;;;5034285;28;20036;-48
2021/05/01 05:30:34;;;;;;;1.90;1.58;;;19.90;45.90;;;;;;5035516;28;20049;-45
2021/05/01 05:33:00;;;;;;;4.05;2.13;;;19.90;45.90;;;;;;5037737;28;20053;-46
2021/05/01 05:35:26;;;;;;;4.22;1.73;;;19.90;46.00;;;;;;5037586;28;20424;-45
2021/05/01 05:37:52;;;;;;;6.10;1.75;;;19.90;46.00;;;;;;5037828;28;20060;-45
2021/05/01 05:40:17;;;;;;;5.47;1.67;;;19.90;46.00;;;;;;5037829;28;20117;-48
2021/05/01 05:42:44;;;;;;;8.05;2.05;;;19.90;46.00;;;;;;5037726;28;20026;-46
2021/05/01 05:45:11;;;;;;;4.72;1.80;;;19.90;46.10;;;;;;5037813;28;20079;-47
2021/05/01 05:47:37;;;;;;;6.10;1.90;;;19.90;46.20;;;;;;5037500;28;20025;-48
2021/05/01 05:50:04;;;;;;;6.40;1.77;;;19.90;46.20;;;;;;5038123;28;20028;-44
2021/05/01 05:52:31;;;;;;;3.40;1.80;;;19.90;46.20;;;;;;5037868;28;20041;-45
2021/05/01 05:54:59;;;;;;;4.82;1.83;;;19.90;46.20;;;;;;5037428;28;20025;-44
2021/05/01 05:57:25;;;;;;;11.30;2.20;;;19.90;46.30;;;;;;5037467;28;20032;-52
2021/05/01 05:59:50;;;;;;;4.32;2.20;;;19.90;46.50;;;;;;5037820;28;20057;-46
2021/05/01 06:02:16;;;;;;;6.63;2.13;;;19.90;46.30;;;;;;5037299;28;20076;-46
2021/05/01 06:04:49;;;;;;;8.10;2.13;;;19.90;46.20;;;;;;5037468;28;20333;-45
2021/05/01 06:07:23;;;;;;;6.60;2.03;;;19.90;46.20;;;;;;5037448;28;20026;-46
2021/05/01 06:09:50;;;;;;;4.97;2.25;;;19.90;46.30;;;;;;5037391;28;20033;-47
2021/05/01 06:12:18;;;;;;;3.90;1.80;;;19.90;46.30;;;;;;5037573;28;20062;-50
2021/05/01 06:14:46;;;;;;;2.45;1.90;;;19.90;46.30;;;;;;5037328;28;20024;-48
2021/05/01 06:17:13;;;;;;;3.22;1.60;;;19.90;46.30;;;;;;5037161;28;20025;-48
2021/05/01 06:19:40;;;;;;;5.50;1.67;;;19.90;46.20;;;;;;5037081;28;20103;-51
2021/05/01 06:22:05;;;;;;;3.55;1.75;;;19.90;46.20;;;;;;5037418;28;20025;-48
2021/05/01 06:24:31;;;;;;;5.63;2.35;;;19.90;46.20;;;;;;5037036;28;20025;-47
2021/05/01 06:26:57;;;;;;;3.90;2.22;;;19.90;46.20;;;;;;5037321;28;20029;-48
2021/05/01 06:29:24;;;;;;;5.35;2.50;;;19.90;46.10;;;;;;5036795;28;20388;-47
2021/05/01 06:31:50;;;;;;;5.75;2.30;;;19.90;46.10;;;;;;5020169;28;20144;-47
2021/05/01 06:34:16;;;;;;;7.88;2.17;;;19.90;46.10;;;;;;5037047;28;20061;-49
2021/05/01 06:36:43;;;;;;;2.90;2.10;;;19.90;46.00;;;;;;5036630;28;20364;-53
2021/05/01 06:39:11;;;;;;;4.18;1.98;;;19.90;46.00;;;;;;5036718;28;20037;-50
2021/05/01 06:41:43;;;;;;;9.32;1.98;;;19.90;46.10;;;;;;5034775;28;20521;-49
2021/05/01 06:44:15;;;;;;;2.95;1.80;;;19.90;46.10;;;;;;5036457;28;20025;-48
2021/05/01 06:46:45;;;;;;;15.35;2.35;;;19.90;46.20;;;;;;5036448;28;20025;-47
2021/05/01 06:49:24;;;;;;;10.20;2.10;;;19.90;46.40;;;;;;5036732;28;20044;-46
2021/05/01 06:51:53;;;;;;;3.60;1.60;;;19.90;47.00;;;;;;5036347;28;20036;-50
2021/05/01 06:54:22;;;;;;;5.40;1.65;;;19.90;46.40;;;;;;5036340;28;20029;-51
2021/05/01 06:56:48;;;;;;;7.05;2.15;;;20.00;46.70;;;;;;5053254;28;20021;-48
2021/05/01 06:59:15;;;;;;;4.95;2.45;;;20.00;46.90;;;;;;5056258;28;20032;-48
2021/05/01 07:01:44;;;;;;;25.98;2.83;;;20.00;47.10;;;;;;5056244;28;20162;-52
2021/05/01 07:04:12;;;;;;;9.38;3.20;;;20.00;47.40;;;;;;5045483;28;20044;-51
2021/05/01 07:06:39;;;;;;;12.32;5.30;;;20.00;47.30;;;;;;5036419;28;20502;-48
2021/05/01 07:09:05;;;;;;;9.73;4.80;;;19.90;45.50;;;;;;5035668;28;20739;-52
2021/05/01 07:11:31;;;;;;;12.75;5.03;;;19.80;45.50;;;;;;5036179;28;20021;-50
2021/05/01 07:13:57;;;;;;;8.70;3.25;;;19.60;45.00;;;;;;5036326;28;20096;-63
2021/05/01 07:16:24;;;;;;;11.68;2.95;;;19.60;46.40;;;;;;5036299;28;20029;-50
2021/05/01 07:18:50;;;;;;;9.32;2.53;;;19.70;47.10;;;;;;5036182;28;20060;-61
2021/05/01 07:21:18;;;;;;;10.65;2.40;;;19.80;47.50;;;;;;5036339;28;20049;-47
2021/05/01 07:23:43;;;;;;;15.75;2.63;;;19.80;47.60;;;;;;5035464;28;20507;-49
2021/05/01 07:26:13;;;;;;;9.35;2.53;;;19.80;47.70;;;;;;5035509;28;20056;-52
2021/05/01 07:28:44;;;;;;;7.15;2.35;;;19.90;47.90;;;;;;5035985;28;20029;-48
2021/05/01 07:31:16;;;;;;;8.65;2.60;;;19.90;47.90;;;;;;5035641;28;20444;-59
2021/05/01 07:33:45;;;;;;;3.75;2.40;;;19.90;47.80;;;;;;5035501;28;20373;-53
2021/05/01 07:36:17;;;;;;;6.22;2.45;;;20.00;47.80;;;;;;5035816;28;20026;-53
2021/05/01 07:38:44;;;;;;;5.15;1.80;;;20.00;47.90;;;;;;5035305;28;20024;-54
2021/05/01 07:41:12;;;;;;;10.40;3.10;;;20.10;48.00;;;;;;5035597;28;20028;-52
2021/05/01 07:43:40;;;;;;;19.13;2.60;;;20.10;48.20;;;;;;5035689;28;20033;-54
2021/05/01 07:46:06;;;;;;;4.50;2.20;;;20.20;48.30;;;;;;5035790;28;20364;-54
2021/05/01 07:48:34;;;;;;;13.38;3.03;;;20.20;48.20;;;;;;5035345;28;20115;-57
2021/05/01 07:51:00;;;;;;;7.50;2.83;;;20.20;48.10;;;;;;5035405;28;20060;-53
2021/05/01 07:53:26;;;;;;;5.88;2.25;;;20.20;48.10;;;;;;5034849;28;20040;-54
2021/05/01 07:55:51;;;;;;;9.23;2.97;;;20.30;48.30;;;;;;5035779;28;20428;-60
2021/05/01 07:58:17;;;;;;;8.88;3.08;;;20.30;48.80;;;;;;5035383;28;20018;-57
2021/05/01 08:00:43;;;;;;;15.07;2.22;;;20.30;48.90;;;;;;5035222;28;20108;-61
2021/05/01 08:03:09;;;;;;;7.68;2.53;;;20.40;48.80;;;;;;5035167;28;20117;-60
2021/05/01 08:05:35;;;;;;;15.43;3.50;;;20.40;49.00;;;;;;5034931;28;20057;-56
2021/05/01 08:08:01;;;;;;;10.50;2.30;;;20.40;49.40;;;;;;5035197;28;20026;-60
2021/05/01 08:10:26;;;;;;;13.40;2.53;;;20.40;49.10;;;;;;5035263;28;20104;-55
2021/05/01 08:12:52;;;;;;;10.30;2.17;;;20.50;48.70;;;;;;5035033;28;20109;-55
2021/05/01 08:15:18;;;;;;;10.15;2.22;;;20.50;48.50;;;;;;5035500;28;20121;-50
2021/05/01 08:17:44;;;;;;;11.07;2.17;;;20.50;48.50;;;;;;5035034;28;20433;-58
2021/05/01 08:20:11;;;;;;;7.05;1.80;;;20.50;48.80;;;;;;5034672;28;20665;-61
2021/05/01 08:22:38;;;;;;;10.40;1.88;;;20.60;49.40;;;;;;5035450;28;20021;-55
2021/05/01 08:25:06;;;;;;;4.78;1.88;;;20.50;49.90;;;;;;5034748;28;20018;-59
2021/05/01 08:27:31;;;;;;;8.77;2.47;;;20.60;50.70;;;;;;5017217;28;20029;-60
2021/05/01 08:29:57;;;;;;;6.03;1.60;;;20.60;51.80;;;;;;5035240;28;20055;-58
2021/05/01 08:32:22;;;;;;;6.30;1.70;;;20.60;52.40;;;;;;5034917;28;20047;-59
2021/05/01 08:34:48;;;;;;;5.40;2.17;;;20.70;53.20;;;;;;5034843;28;20130;-59
2021/05/01 08:37:13;;;;;;;8.57;2.45;;;20.70;53.80;;;;;;5034759;28;20025;-56
2021/05/01 08:39:39;;;;;;;10.63;2.20;;;20.70;54.20;;;;;;5035098;28;20440;-57
2021/05/01 08:42:06;;;;;;;5.45;2.47;;;20.80;54.40;;;;;;5017071;28;20508;-57
2021/05/01 08:44:31;;;;;;;6.60;1.92;;;20.80;54.20;;;;;;5035075;28;20030;-57
2021/05/01 08:46:57;;;;;;;5.93;1.98;;;20.80;54.10;;;;;;5034989;28;20125;-60
2021/05/01 08:49:23;;;;;;;4.22;1.70;;;20.80;54.00;;;;;;5034249;28;20030;-60
2021/05/01 08:51:48;;;;;;;5.70;1.95;;;20.80;53.80;;;;;;5034706;28;20025;-60
2021/05/01 08:54:15;;;;;;;5.25;1.90;;;20.90;53.80;;;;;;5017909;28;20026;-61
2021/05/01 08:56:44;;;;;;;8.20;2.17;;;20.90;53.80;;;;;;5034626;28;20063;-61
2021/05/01 08:59:10;;;;;;;3.33;1.60;;;20.90;53.60;;;;;;5034617;28;20116;-60
2021/05/01 09:01:37;;;;;;;5.70;2.05;;;21.00;53.40;;;;;;5034393;28;20108;-61
2021/05/01 09:04:07;;;;;;;3.85;1.80;;;21.00;53.20;;;;;;5035046;28;20024;-61
2021/05/01 09:06:34;;;;;;;3.45;1.63;;;21.00;53.10;;;;;;5038643;28;20032;-60
2021/05/01 09:09:07;;;;;;;3.58;1.70;;;21.10;53.00;;;;;;5038797;28;20041;-62
2021/05/01 09:11:33;;;;;;;6.97;1.37;;;21.10;52.80;;;;;;5038847;28;20021;-60
2021/05/01 09:13:59;;;;;;;6.38;1.90;;;21.10;52.60;;;;;;5038558;28;20037;-59
2021/05/01 09:16:25;;;;;;;5.43;1.58;;;21.20;52.40;;;;;;5038329;28;20026;-53
2021/05/01 09:18:54;;;;;;;2.95;2.05;;;21.20;52.10;;;;;;5037899;28;20437;-59
2021/05/01 09:21:22;;;;;;;3.20;1.70;;;21.20;50.20;;;;;;5038496;28;20403;-58
2021/05/01 09:23:49;;;;;;;8.13;1.70;;;21.30;50.70;;;;;;5038229;28;20025;-57
2021/05/01 09:26:18;;;;;;;3.08;1.60;;;21.30;50.70;;;;;;5038092;28;20036;-61
2021/05/01 09:28:45;;;;;;;2.83;1.63;;;21.30;50.60;;;;;;5038083;28;20424;-61
2021/05/01 09:31:14;;;;;;;6.15;1.98;;;21.30;50.30;;;;;;5037686;28;20448;-57
2021/05/01 09:33:42;;;;;;;5.88;2.08;;;21.30;49.80;;;;;;5038452;28;20060;-55
2021/05/01 09:36:12;;;;;;;4.40;2.00;;;21.30;49.50;;;;;;5038507;28;20018;-58
2021/05/01 09:39:07;;;;;;;8.60;1.80;;;21.30;47.10;;;;;;5038128;28;20125;-55
2021/05/01 09:41:40;;;;;;;7.05;1.75;;;21.20;47.60;;;;;;5037482;28;20452;-56
2021/05/01 09:44:20;;;;;;;6.50;2.00;;;21.20;47.30;;;;;;5037913;28;20029;-55
2021/05/01 09:46:47;;;;;;;6.28;1.55;;;21.20;48.20;;;;;;5037868;28;20110;-55
2021/05/01 09:49:19;;;;;;;4.57;1.38;;;21.30;48.70;;;;;;5037847;28;20109;-55
2021/05/01 09:51:59;;;;;;;5.35;1.50;;;21.20;48.80;;;;;;5037840;28;20017;-54
2021/05/01 09:54:32;;;;;;;5.47;1.38;;;21.20;48.90;;;;;;5037701;28;20057;-56
2021/05/01 09:57:11;;;;;;;5.22;1.20;;;21.20;49.00;;;;;;5037897;28;20021;-57
2021/05/01 09:59:45;;;;;;;3.13;1.38;;;21.20;49.00;;;;;;5037738;28;20026;-57
2021/05/01 10:02:13;;;;;;;2.65;1.50;;;21.20;48.90;;;;;;5037284;28;20018;-56
2021/05/01 10:04:40;;;;;;;1.60;1.08;;;21.20;49.60;;;;;;5037532;28;20337;-58
2021/05/01 10:07:08;;;;;;;1.35;0.80;;;21.20;48.90;;;;;;5037232;28;20379;-56
2021/05/01 10:09:36;;;;;;;3.97;1.55;;;21.20;48.80;;;;;;5037577;28;20017;-56
2021/05/01 10:12:11;;;;;;;2.65;1.20;;;21.20;48.70;;;;;;5037564;28;20104;-54
2021/05/01 10:14:48;;;;;;;4.38;1.35;;;21.20;48.70;;;;;;5037394;28;20025;-57
2021/05/01 10:17:22;;;;;;;3.00;1.10;;;21.20;48.70;;;;;;5036764;28;20029;-57
2021/05/01 10:19:55;;;;;;;2.20;1.00;;;21.20;48.60;;;;;;5036897;28;20039;-57
2021/05/01 10:22:40;;;;;;;15.27;2.47;;;21.20;48.60;;;;;;5037737;28;20035;-53
2021/05/01 10:25:06;;;;;;;4.72;1.65;;;21.30;48.20;;;;;;5036961;28;20119;-58
2021/05/01 10:27:42;;;;;;;10.43;2.10;;;21.30;48.20;;;;;;5037010;28;20030;-55
2021/05/01 10:30:29;;;;;;;9.07;1.60;;;21.30;48.10;;;;;;5037390;28;20022;-56
2021/05/01 10:33:23;;;;;;;6.60;1.35;;;21.30;48.20;;;;;;5036956;28;20448;-57
2021/05/01 10:36:08;;;;;;;15.93;1.85;;;21.40;48.20;;;;;;5037230;28;20104;-57
2021/05/01 10:38:34;;;;;;;11.65;2.42;;;21.40;48.30;;;;;;5036933;28;20041;-56
2021/05/01 10:41:02;;;;;;;23.30;2.30;;;21.40;48.60;;;;;;5037028;28;20098;-61
2021/05/01 10:43:33;;;;;;;8.75;1.35;;;21.40;48.70;;;;;;5036981;28;20041;-58
2021/05/01 10:46:07;;;;;;;10.82;2.28;;;21.40;48.70;;;;;;5036235;28;20040;-57
2021/05/01 10:48:48;;;;;;;7.80;2.03;;;21.40;48.70;;;;;;5036607;28;20102;-57
2021/05/01 10:51:15;;;;;;;9.10;2.47;;;21.40;48.80;;;;;;5036538;28;20018;-54
2021/05/01 10:53:41;;;;;;;6.28;1.50;;;21.40;48.80;;;;;;5036588;28;20112;-59
2021/05/01 10:56:10;;;;;;;8.25;1.67;;;21.40;48.90;;;;;;5036775;28;20026;-60
2021/05/01 10:58:37;;;;;;;8.27;1.77;;;21.40;48.90;;;;;;5036473;28;20186;-56
2021/05/01 11:01:05;;;;;;;6.70;2.00;;;21.30;48.90;;;;;;5036115;28;20443;-59
2021/05/01 11:03:30;;;;;;;6.30;1.77;;;21.30;48.90;;;;;;5036427;28;20017;-60
2021/05/01 11:06:00;;;;;;;7.90;1.80;;;21.30;48.90;;;;;;5036332;28;20048;-58
2021/05/01 11:08:39;;;;;;;6.95;1.70;;;21.30;48.70;;;;;;5036530;28;20028;-57
2021/05/01 11:11:10;;;;;;;7.45;1.70;;;21.30;48.70;;;;;;5035678;28;20029;-56
2021/05/01 11:13:38;;;;;;;2.80;1.30;;;21.30;48.70;;;;;;5036532;28;20026;-57
2021/05/01 11:16:08;;;;;;;8.98;1.52;;;21.30;48.50;;;;;;5035798;28;20046;-53
2021/05/01 11:18:38;;;;;;;6.80;1.75;;;21.30;48.50;;;;;;5035432;28;20024;-56
2021/05/01 11:21:07;;;;;;;18.25;2.90;;;21.30;48.10;;;;;;5035963;28;20033;-58
2021/05/01 11:23:35;;;;;;;5.43;1.70;;;21.20;43.60;;;;;;5035544;28;20388;-57
2021/05/01 11:26:02;;;;;;;7.43;1.95;;;21.10;46.10;;;;;;5018462;28;20079;-55
2021/05/01 11:28:28;;;;;;;5.95;1.73;;;21.10;46.90;;;;;;5035906;28;20032;-54
2021/05/01 11:30:56;;;;;;;5.40;1.50;;;21.20;47.00;;;;;;5036263;28;20025;-54
2021/05/01 11:33:23;;;;;;;4.13;1.60;;;21.10;46.90;;;;;;5035479;28;20049;-53
2021/05/01 11:35:50;;;;;;;9.55;1.65;;;21.10;46.80;;;;;;5035829;28;20036;-53
2021/05/01 11:38:33;;;;;;;3.80;1.23;;;21.10;46.90;;;;;;5035629;28;20318;-54
2021/05/01 11:40:59;;;;;;;7.80;1.33;;;21.20;47.10;;;;;;5035701;28;20120;-56
2021/05/01 11:43:30;;;;;;;3.42;1.10;;;21.20;47.30;;;;;;5035603;28;20133;-53
2021/05/01 11:46:24;;;;;;;4.43;1.35;;;21.20;47.40;;;;;;5035580;28;20037;-55
2021/05/01 11:49:05;;;;;;;3.53;1.70;;;21.20;47.50;;;;;;5035430;28;20168;-52
2021/05/01 11:52:18;;;;;;;4.40;1.50;;;21.20;47.50;;;;;;5035425;28;20371;-53
2021/05/01 11:54:46;;;;;;;7.53;1.80;;;21.30;47.60;;;;;;5035265;28;20025;-51
2021/05/01 11:57:18;;;;;;;5.78;1.52;;;21.20;48.30;;;;;;5034936;28;20460;-51
2021/05/01 11:59:45;;;;;;;7.07;2.20;;;21.30;47.70;;;;;;5035329;28;20045;-52
2021/05/01 12:02:13;;;;;;;2.80;1.02;;;21.30;47.70;;;;;;5034932;28;20456;-50
2021/05/01 12:04:55;;;;;;;4.35;1.17;;;21.30;47.60;;;;;;5035469;28;20021;-52
2021/05/01 12:07:32;;;;;;;4.67;1.63;;;21.30;47.60;;;;;;5035276;28;20049;-52
2021/05/01 12:10:07;;;;;;;5.18;1.20;;;21.30;47.60;;;;;;5035244;28;20272;-48
2021/05/01 12:12:39;;;;;;;5.25;1.83;;;21.30;47.50;;;;;;5035160;28;20029;-51
2021/05/01 12:15:07;;;;;;;4.57;1.40;;;21.30;47.40;;;;;;5035047;28;20109;-52
2021/05/01 12:17:33;;;;;;;3.17;1.20;;;21.30;47.30;;;;;;5035257;28;20095;-51
2021/05/01 12:20:08;;;;;;;5.50;1.40;;;21.20;46.90;;;;;;5034457;28;20037;-51
2021/05/01 12:22:36;;;;;;;2.45;1.25;;;21.30;47.20;;;;;;5017713;28;20068;-47
2021/05/01 12:25:21;;;;;;;4.03;1.20;;;21.20;47.40;;;;;;5035105;28;20072;-52
2021/05/01 12:27:48;;;;;;;5.93;1.50;;;21.20;47.70;;;;;;5034801;28;20033;-53
2021/05/01 12:30:36;;;;;;;5.38;1.73;;;21.20;47.70;;;;;;5034558;28;20044;-57
2021/05/01 12:33:26;;;;;;;4.63;1.52;;;21.30;47.70;;;;;;5035372;28;20053;-51
2021/05/01 12:35:54;;;;;;;4.18;1.35;;;21.20;47.80;;;;;;5034798;28;20026;-53
2021/05/01 12:38:21;;;;;;;5.35;1.98;;;21.20;48.10;;;;;;5017414;28;20451;-54
2021/05/01 12:40:47;;;;;;;3.78;1.33;;;21.20;48.20;;;;;;5034091;28;20029;-52
2021/05/01 12:43:29;;;;;;;5.82;1.20;;;21.20;48.20;;;;;;5034699;28;20037;-50
2021/05/01 12:45:54;;;;;;;4.43;1.27;;;21.20;48.10;;;;;;5034737;28;20053;-50
2021/05/01 12:48:41;;;;;;;20.83;2.42;;;21.20;48.10;;;;;;5034462;28;20405;-49
2021/05/01 12:51:26;;;;;;;10.15;2.08;;;21.20;48.20;;;;;;5034714;28;20079;-48